sensor_id;sensor_type;location;lat;lon;timestamp;temperature;humidity
10123;DHT22;5101;49.038;8.710;2022-09-29T00:00:08;8.60;99.90
10123;DHT22;5101;49.038;8.710;2022-09-29T00:02:34;8.50;99.90
10123;DHT22;5101;49.038;8.710;2022-09-29T00:04:59;8.50;99.90
10123;DHT22;5101;49.038;8.710;2022-09-29T00:07:25;8.50;99.90
10123;DHT22;5101;49.038;8.710;2022-09-29T00:09:50;8.40;99.90
10123;DHT22;5101;49.038;8.710;2022-09-29T00:12:16;8.40;99.90
10123;DHT22;5101;49.038;8.710;2022-09-29T00:14:41;8.40;99.90
10123;DHT22;5101;49.038;8.710;2022-09-29T00:17:07;8.40;99.90
10123;DHT22;5101;49.038;8.710;2022-09-29T00:19:32;8.40;99.90
10123;DHT22;5101;49.038;8.710;2022-09-29T00:21:58;8.40;99.90
10123;DHT22;5101;49.038;8.710;2022-09-29T00:24:24;8.30;99.90
10123;DHT22;5101;49.038;8.710;2022-09-29T00:26:50;8.30;99.90
10123;DHT22;5101;49.038;8.710;2022-09-29T00:29:15;8.30;99.90
10123;DHT22;5101;49.038;8.710;2022-09-29T00:31:41;8.30;99.90
10123;DHT22;5101;49.038;8.710;2022-09-29T00:34:06;8.30;99.90
10123;DHT22;5101;49.038;8.710;2022-09-29T00:36:32;8.30;99.90
10123;DHT22;5101;49.038;8.710;2022-09-29T00:38:58;8.30;99.90
10123;DHT22;5101;49.038;8.710;2022-09-29T00:41:32;8.20;99.90
10123;DHT22;5101;49.038;8.710;2022-09-29T00:43:59;8.30;99.90
10123;DHT22;5101;49.038;8.710;2022-09-29T00:49:06;8.20;99.90
10123;DHT22;5101;49.038;8.710;2022-09-29T00:51:36;8.20;99.90
10123;DHT22;5101;49.038;8.710;2022-09-29T00:54:04;8.20;99.90
10123;DHT22;5101;49.038;8.710;2022-09-29T00:56:31;8.20;99.90
10123;DHT22;5101;49.038;8.710;2022-09-29T00:59:00;8.20;99.90
10123;DHT22;5101;49.038;8.710;2022-09-29T01:01:30;8.20;99.90
10123;DHT22;5101;49.038;8.710;2022-09-29T01:04:00;8.20;99.90
10123;DHT22;5101;49.038;8.710;2022-09-29T01:06:31;8.20;99.90
10123;DHT22;5101;49.038;8.710;2022-09-29T01:09:03;8.20;99.90
10123;DHT22;5101;49.038;8.710;2022-09-29T01:11:29;8.20;99.90
10123;DHT22;5101;49.038;8.710;2022-09-29T01:13:56;8.20;99.90
10123;DHT22;5101;49.038;8.710;2022-09-29T01:16:28;8.20;99.90
10123;DHT22;5101;49.038;8.710;2022-09-29T01:18:53;8.20;99.90
10123;DHT22;5101;49.038;8.710;2022-09-29T01:29:53;8.10;99.90
10123;DHT22;5101;49.038;8.710;2022-09-29T01:32:46;8.10;99.90
10123;DHT22;5101;49.038;8.710;2022-09-29T01:35:21;8.10;99.90
10123;DHT22;5101;49.038;8.710;2022-09-29T01:38:13;8.10;99.90
10123;DHT22;5101;49.038;8.710;2022-09-29T01:46:31;8.20;99.90
10123;DHT22;5101;49.038;8.710;2022-09-29T01:48:59;8.20;99.90
10123;DHT22;5101;49.038;8.710;2022-09-29T01:51:46;8.20;99.90
10123;DHT22;5101;49.038;8.710;2022-09-29T01:54:23;8.20;99.90
10123;DHT22;5101;49.038;8.710;2022-09-29T01:57:01;8.30;99.90
10123;DHT22;5101;49.038;8.710;2022-09-29T01:59:50;8.30;99.90
10123;DHT22;5101;49.038;8.710;2022-09-29T02:02:29;8.30;99.90
10123;DHT22;5101;49.038;8.710;2022-09-29T02:04:58;8.30;99.90
10123;DHT22;5101;49.038;8.710;2022-09-29T02:07:45;8.30;99.90
10123;DHT22;5101;49.038;8.710;2022-09-29T02:10:35;8.30;99.90
10123;DHT22;5101;49.038;8.710;2022-09-29T02:13:04;8.40;99.90
10123;DHT22;5101;49.038;8.710;2022-09-29T02:15:33;8.40;99.90
10123;DHT22;5101;49.038;8.710;2022-09-29T02:18:07;8.40;99.90
10123;DHT22;5101;49.038;8.710;2022-09-29T02:20:35;8.40;99.90
10123;DHT22;5101;49.038;8.710;2022-09-29T02:23:02;8.40;99.90
10123;DHT22;5101;49.038;8.710;2022-09-29T02:25:28;8.40;99.90
10123;DHT22;5101;49.038;8.710;2022-09-29T02:27:53;8.50;99.90
10123;DHT22;5101;49.038;8.710;2022-09-29T02:30:19;8.50;99.90
10123;DHT22;5101;49.038;8.710;2022-09-29T02:32:46;8.50;99.90
10123;DHT22;5101;49.038;8.710;2022-09-29T02:35:13;8.50;99.90
10123;DHT22;5101;49.038;8.710;2022-09-29T02:40:40;8.60;99.90
10123;DHT22;5101;49.038;8.710;2022-09-29T02:51:52;8.60;99.90
10123;DHT22;5101;49.038;8.710;2022-09-29T02:57:30;8.70;99.90
10123;DHT22;5101;49.038;8.710;2022-09-29T03:00:11;8.70;99.90
10123;DHT22;5101;49.038;8.710;2022-09-29T03:02:39;8.70;99.90
10123;DHT22;5101;49.038;8.710;2022-09-29T03:05:07;8.70;99.90
10123;DHT22;5101;49.038;8.710;2022-09-29T03:07:36;8.70;99.90
10123;DHT22;5101;49.038;8.710;2022-09-29T03:10:02;8.70;99.90
10123;DHT22;5101;49.038;8.710;2022-09-29T03:12:27;8.80;99.90
10123;DHT22;5101;49.038;8.710;2022-09-29T03:14:53;8.70;99.90
10123;DHT22;5101;49.038;8.710;2022-09-29T03:17:18;8.70;99.90
10123;DHT22;5101;49.038;8.710;2022-09-29T03:19:44;8.80;99.90
10123;DHT22;5101;49.038;8.710;2022-09-29T03:22:09;8.80;99.90
10123;DHT22;5101;49.038;8.710;2022-09-29T03:24:35;8.80;99.90
10123;DHT22;5101;49.038;8.710;2022-09-29T03:27:01;8.80;99.90
10123;DHT22;5101;49.038;8.710;2022-09-29T03:29:26;8.90;99.90
10123;DHT22;5101;49.038;8.710;2022-09-29T03:31:52;8.90;99.90
10123;DHT22;5101;49.038;8.710;2022-09-29T03:34:17;8.90;99.90
10123;DHT22;5101;49.038;8.710;2022-09-29T03:36:43;8.90;99.90
10123;DHT22;5101;49.038;8.710;2022-09-29T03:39:08;8.90;99.90
10123;DHT22;5101;49.038;8.710;2022-09-29T03:41:34;9.00;99.90
10123;DHT22;5101;49.038;8.710;2022-09-29T03:43:59;9.00;99.90
10123;DHT22;5101;49.038;8.710;2022-09-29T03:46:25;9.00;99.90
10123;DHT22;5101;49.038;8.710;2022-09-29T03:48:50;9.00;99.90
10123;DHT22;5101;49.038;8.710;2022-09-29T03:51:16;9.00;99.90
10123;DHT22;5101;49.038;8.710;2022-09-29T03:53:42;9.00;99.90
10123;DHT22;5101;49.038;8.710;2022-09-29T03:56:07;9.00;99.90
10123;DHT22;5101;49.038;8.710;2022-09-29T03:58:33;9.00;99.90
10123;DHT22;5101;49.038;8.710;2022-09-29T04:00:59;9.10;99.90
10123;DHT22;5101;49.038;8.710;2022-09-29T04:03:26;9.10;99.90
10123;DHT22;5101;49.038;8.710;2022-09-29T04:05:52;9.10;99.90
10123;DHT22;5101;49.038;8.710;2022-09-29T04:08:17;9.10;99.90
10123;DHT22;5101;49.038;8.710;2022-09-29T04:10:45;9.10;99.90
10123;DHT22;5101;49.038;8.710;2022-09-29T04:13:10;9.10;99.90
10123;DHT22;5101;49.038;8.710;2022-09-29T04:15:36;9.10;99.90
10123;DHT22;5101;49.038;8.710;2022-09-29T04:18:02;9.10;99.90
10123;DHT22;5101;49.038;8.710;2022-09-29T04:20:28;9.10;99.90
10123;DHT22;5101;49.038;8.710;2022-09-29T04:22:53;9.10;99.90
10123;DHT22;5101;49.038;8.710;2022-09-29T04:25:19;9.10;99.90
10123;DHT22;5101;49.038;8.710;2022-09-29T04:27:45;9.10;99.90
10123;DHT22;5101;49.038;8.710;2022-09-29T04:30:10;9.00;99.90
10123;DHT22;5101;49.038;8.710;2022-09-29T04:32:36;9.00;99.90
10123;DHT22;5101;49.038;8.710;2022-09-29T04:35:02;9.10;99.90
10123;DHT22;5101;49.038;8.710;2022-09-29T04:37:28;9.10;99.90
10123;DHT22;5101;49.038;8.710;2022-09-29T04:39:54;9.00;99.90
10123;DHT22;5101;49.038;8.710;2022-09-29T04:42:20;9.00;99.90
10123;DHT22;5101;49.038;8.710;2022-09-29T04:44:46;9.00;99.90
10123;DHT22;5101;49.038;8.710;2022-09-29T04:47:12;8.90;99.90
10123;DHT22;5101;49.038;8.710;2022-09-29T04:49:38;8.90;99.90
10123;DHT22;5101;49.038;8.710;2022-09-29T04:52:04;8.80;99.90
10123;DHT22;5101;49.038;8.710;2022-09-29T04:54:31;8.70;99.90
10123;DHT22;5101;49.038;8.710;2022-09-29T04:56:56;8.70;99.90
10123;DHT22;5101;49.038;8.710;2022-09-29T04:59:22;8.80;99.90
10123;DHT22;5101;49.038;8.710;2022-09-29T05:01:48;8.70;99.90
10123;DHT22;5101;49.038;8.710;2022-09-29T05:04:13;8.70;99.90
10123;DHT22;5101;49.038;8.710;2022-09-29T05:06:39;8.70;99.90
10123;DHT22;5101;49.038;8.710;2022-09-29T05:09:06;8.70;99.90
10123;DHT22;5101;49.038;8.710;2022-09-29T05:11:31;8.70;99.90
10123;DHT22;5101;49.038;8.710;2022-09-29T05:13:57;8.70;99.90
10123;DHT22;5101;49.038;8.710;2022-09-29T05:16:23;8.60;99.90
10123;DHT22;5101;49.038;8.710;2022-09-29T05:18:49;8.60;99.90
10123;DHT22;5101;49.038;8.710;2022-09-29T05:21:14;8.70;99.90
10123;DHT22;5101;49.038;8.710;2022-09-29T05:23:40;8.70;99.90
10123;DHT22;5101;49.038;8.710;2022-09-29T05:26:07;8.70;99.90
10123;DHT22;5101;49.038;8.710;2022-09-29T05:28:34;8.70;99.90
10123;DHT22;5101;49.038;8.710;2022-09-29T05:31:04;8.60;99.90
10123;DHT22;5101;49.038;8.710;2022-09-29T05:33:30;8.60;99.90
10123;DHT22;5101;49.038;8.710;2022-09-29T05:35:56;8.50;99.90
10123;DHT22;5101;49.038;8.710;2022-09-29T05:38:22;8.50;99.90
10123;DHT22;5101;49.038;8.710;2022-09-29T05:40:49;8.60;99.90
10123;DHT22;5101;49.038;8.710;2022-09-29T05:43:14;8.60;99.90
10123;DHT22;5101;49.038;8.710;2022-09-29T05:45:40;8.60;99.90
10123;DHT22;5101;49.038;8.710;2022-09-29T05:48:06;8.60;99.90
10123;DHT22;5101;49.038;8.710;2022-09-29T05:50:32;8.60;99.90
10123;DHT22;5101;49.038;8.710;2022-09-29T05:53:09;8.60;99.90
10123;DHT22;5101;49.038;8.710;2022-09-29T05:55:35;8.60;99.90
10123;DHT22;5101;49.038;8.710;2022-09-29T05:58:01;8.50;99.90
10123;DHT22;5101;49.038;8.710;2022-09-29T06:00:27;8.50;99.90
10123;DHT22;5101;49.038;8.710;2022-09-29T06:02:52;8.40;99.90
10123;DHT22;5101;49.038;8.710;2022-09-29T06:05:18;8.50;99.90
10123;DHT22;5101;49.038;8.710;2022-09-29T06:07:43;8.50;99.90
10123;DHT22;5101;49.038;8.710;2022-09-29T06:10:09;8.50;99.90
10123;DHT22;5101;49.038;8.710;2022-09-29T06:12:37;8.60;99.90
10123;DHT22;5101;49.038;8.710;2022-09-29T06:15:04;8.60;99.90
10123;DHT22;5101;49.038;8.710;2022-09-29T06:17:30;8.70;99.90
10123;DHT22;5101;49.038;8.710;2022-09-29T06:19:55;8.70;99.90
10123;DHT22;5101;49.038;8.710;2022-09-29T06:22:21;8.80;99.90
10123;DHT22;5101;49.038;8.710;2022-09-29T06:24:46;8.80;99.90
10123;DHT22;5101;49.038;8.710;2022-09-29T06:27:12;8.90;99.90
10123;DHT22;5101;49.038;8.710;2022-09-29T06:29:37;8.80;99.90
10123;DHT22;5101;49.038;8.710;2022-09-29T06:32:03;8.80;99.90
10123;DHT22;5101;49.038;8.710;2022-09-29T06:34:28;8.80;99.90
10123;DHT22;5101;49.038;8.710;2022-09-29T06:36:54;8.80;99.90
10123;DHT22;5101;49.038;8.710;2022-09-29T06:39:38;8.80;99.90
10123;DHT22;5101;49.038;8.710;2022-09-29T06:42:03;8.90;99.90
10123;DHT22;5101;49.038;8.710;2022-09-29T06:44:29;9.00;99.90
10123;DHT22;5101;49.038;8.710;2022-09-29T06:46:55;9.00;99.90
10123;DHT22;5101;49.038;8.710;2022-09-29T06:49:22;9.10;99.90
10123;DHT22;5101;49.038;8.710;2022-09-29T06:51:48;9.20;99.90
10123;DHT22;5101;49.038;8.710;2022-09-29T06:54:16;9.30;99.90
10123;DHT22;5101;49.038;8.710;2022-09-29T06:56:46;9.30;99.90
10123;DHT22;5101;49.038;8.710;2022-09-29T06:59:11;9.30;99.90
10123;DHT22;5101;49.038;8.710;2022-09-29T07:01:37;9.40;99.90
10123;DHT22;5101;49.038;8.710;2022-09-29T07:04:02;9.50;99.90
10123;DHT22;5101;49.038;8.710;2022-09-29T07:06:29;9.60;99.90
10123;DHT22;5101;49.038;8.710;2022-09-29T07:08:55;9.70;99.90
10123;DHT22;5101;49.038;8.710;2022-09-29T07:11:22;9.70;99.90
10123;DHT22;5101;49.038;8.710;2022-09-29T07:13:49;9.70;99.90
10123;DHT22;5101;49.038;8.710;2022-09-29T07:16:15;9.80;99.90
10123;DHT22;5101;49.038;8.710;2022-09-29T07:18:41;10.00;99.90
10123;DHT22;5101;49.038;8.710;2022-09-29T07:21:09;10.10;99.90
10123;DHT22;5101;49.038;8.710;2022-09-29T07:23:36;10.10;99.90
10123;DHT22;5101;49.038;8.710;2022-09-29T07:26:03;10.20;99.90
10123;DHT22;5101;49.038;8.710;2022-09-29T07:28:30;10.30;99.90
10123;DHT22;5101;49.038;8.710;2022-09-29T07:31:00;10.40;99.90
10123;DHT22;5101;49.038;8.710;2022-09-29T07:33:25;10.50;99.90
10123;DHT22;5101;49.038;8.710;2022-09-29T07:35:52;10.60;99.90
10123;DHT22;5101;49.038;8.710;2022-09-29T07:38:18;10.70;99.90
10123;DHT22;5101;49.038;8.710;2022-09-29T07:40:44;10.80;99.90
10123;DHT22;5101;49.038;8.710;2022-09-29T07:43:09;10.90;99.90
10123;DHT22;5101;49.038;8.710;2022-09-29T07:45:35;11.00;99.90
10123;DHT22;5101;49.038;8.710;2022-09-29T07:48:00;11.20;99.90
10123;DHT22;5101;49.038;8.710;2022-09-29T07:50:26;11.30;99.90
10123;DHT22;5101;49.038;8.710;2022-09-29T07:52:51;11.40;99.90
10123;DHT22;5101;49.038;8.710;2022-09-29T07:55:17;11.70;99.90
10123;DHT22;5101;49.038;8.710;2022-09-29T07:57:46;12.00;99.90
10123;DHT22;5101;49.038;8.710;2022-09-29T08:00:12;12.60;99.90
10123;DHT22;5101;49.038;8.710;2022-09-29T08:02:38;12.70;99.90
10123;DHT22;5101;49.038;8.710;2022-09-29T08:05:04;12.80;99.90
10123;DHT22;5101;49.038;8.710;2022-09-29T08:07:29;12.90;99.90
10123;DHT22;5101;49.038;8.710;2022-09-29T08:09:55;12.90;99.90
10123;DHT22;5101;49.038;8.710;2022-09-29T08:12:20;13.10;99.90
10123;DHT22;5101;49.038;8.710;2022-09-29T08:14:46;13.50;99.90
10123;DHT22;5101;49.038;8.710;2022-09-29T08:17:13;13.50;99.90
10123;DHT22;5101;49.038;8.710;2022-09-29T08:19:38;13.60;99.90
10123;DHT22;5101;49.038;8.710;2022-09-29T08:22:04;13.70;99.90
10123;DHT22;5101;49.038;8.710;2022-09-29T08:24:29;13.80;99.90
10123;DHT22;5101;49.038;8.710;2022-09-29T08:26:55;13.90;99.80
10123;DHT22;5101;49.038;8.710;2022-09-29T08:29:22;14.00;99.20
10123;DHT22;5101;49.038;8.710;2022-09-29T08:31:47;14.10;98.70
10123;DHT22;5101;49.038;8.710;2022-09-29T08:34:13;14.30;98.30
10123;DHT22;5101;49.038;8.710;2022-09-29T08:36:39;14.50;97.90
10123;DHT22;5101;49.038;8.710;2022-09-29T08:39:05;14.70;97.60
10123;DHT22;5101;49.038;8.710;2022-09-29T08:41:52;14.90;97.20
10123;DHT22;5101;49.038;8.710;2022-09-29T08:47:01;15.20;96.60
10123;DHT22;5101;49.038;8.710;2022-09-29T08:50:00;15.50;95.90
10123;DHT22;5101;49.038;8.710;2022-09-29T08:52:33;16.00;94.80
10123;DHT22;5101;49.038;8.710;2022-09-29T08:55:08;16.50;94.10
10123;DHT22;5101;49.038;8.710;2022-09-29T08:57:37;17.00;93.30
10123;DHT22;5101;49.038;8.710;2022-09-29T09:00:05;17.40;92.20
10123;DHT22;5101;49.038;8.710;2022-09-29T09:05:50;18.30;89.50
10123;DHT22;5101;49.038;8.710;2022-09-29T09:25:34;21.70;74.10
10123;DHT22;5101;49.038;8.710;2022-09-29T09:28:18;22.20;72.40
10123;DHT22;5101;49.038;8.710;2022-09-29T09:31:02;22.40;69.90
10123;DHT22;5101;49.038;8.710;2022-09-29T09:33:47;22.50;68.20
10123;DHT22;5101;49.038;8.710;2022-09-29T09:36:32;22.60;66.30
10123;DHT22;5101;49.038;8.710;2022-09-29T09:39:04;22.70;65.00
10123;DHT22;5101;49.038;8.710;2022-09-29T09:41:31;22.80;65.10
10123;DHT22;5101;49.038;8.710;2022-09-29T09:44:05;22.70;64.00
10123;DHT22;5101;49.038;8.710;2022-09-29T09:46:36;22.60;62.80
10123;DHT22;5101;49.038;8.710;2022-09-29T09:49:18;22.60;62.60
10123;DHT22;5101;49.038;8.710;2022-09-29T09:51:54;22.50;61.60
10123;DHT22;5101;49.038;8.710;2022-09-29T09:54:33;22.40;61.70
10123;DHT22;5101;49.038;8.710;2022-09-29T10:02:26;21.90;63.30
10123;DHT22;5101;49.038;8.710;2022-09-29T10:04:53;21.80;63.60
10123;DHT22;5101;49.038;8.710;2022-09-29T10:07:21;21.70;63.10
10123;DHT22;5101;49.038;8.710;2022-09-29T10:09:47;21.50;62.60
10123;DHT22;5101;49.038;8.710;2022-09-29T10:12:18;21.40;62.40
10123;DHT22;5101;49.038;8.710;2022-09-29T10:14:52;21.30;61.90
10123;DHT22;5101;49.038;8.710;2022-09-29T10:17:22;21.30;61.80
10123;DHT22;5101;49.038;8.710;2022-09-29T10:20:02;21.10;61.90
10123;DHT22;5101;49.038;8.710;2022-09-29T10:22:30;20.80;61.50
10123;DHT22;5101;49.038;8.710;2022-09-29T10:27:41;20.70;64.60
10123;DHT22;5101;49.038;8.710;2022-09-29T10:30:33;20.90;64.30
10123;DHT22;5101;49.038;8.710;2022-09-29T10:33:01;20.70;63.40
10123;DHT22;5101;49.038;8.710;2022-09-29T10:35:32;20.40;64.70
10123;DHT22;5101;49.038;8.710;2022-09-29T10:38:04;20.40;65.30
10123;DHT22;5101;49.038;8.710;2022-09-29T10:40:31;20.50;65.40
10123;DHT22;5101;49.038;8.710;2022-09-29T10:42:57;20.50;65.40
10123;DHT22;5101;49.038;8.710;2022-09-29T10:45:26;20.40;65.30
10123;DHT22;5101;49.038;8.710;2022-09-29T10:52:54;20.30;65.20
10123;DHT22;5101;49.038;8.710;2022-09-29T10:55:23;20.10;65.00
10123;DHT22;5101;49.038;8.710;2022-09-29T10:57:51;19.80;65.30
10123;DHT22;5101;49.038;8.710;2022-09-29T11:00:35;19.70;66.30
10123;DHT22;5101;49.038;8.710;2022-09-29T11:03:27;19.60;66.60
10123;DHT22;5101;49.038;8.710;2022-09-29T11:06:02;19.30;66.50
10123;DHT22;5101;49.038;8.710;2022-09-29T11:08:29;19.20;66.30
10123;DHT22;5101;49.038;8.710;2022-09-29T11:11:16;18.70;67.10
10123;DHT22;5101;49.038;8.710;2022-09-29T11:13:44;18.40;68.20
10123;DHT22;5101;49.038;8.710;2022-09-29T11:16:25;18.30;69.10
10123;DHT22;5101;49.038;8.710;2022-09-29T11:18:52;18.50;69.60
10123;DHT22;5101;49.038;8.710;2022-09-29T11:24:20;18.70;71.00
10123;DHT22;5101;49.038;8.710;2022-09-29T11:27:03;18.80;71.00
10123;DHT22;5101;49.038;8.710;2022-09-29T11:32:27;18.40;70.70
10123;DHT22;5101;49.038;8.710;2022-09-29T11:52:10;17.90;71.50
10123;DHT22;5101;49.038;8.710;2022-09-29T12:00:14;17.60;71.30
10123;DHT22;5101;49.038;8.710;2022-09-29T12:03:03;17.40;71.00
10123;DHT22;5101;49.038;8.710;2022-09-29T12:05:47;17.40;71.80
10123;DHT22;5101;49.038;8.710;2022-09-29T12:11:09;17.60;73.40
10123;DHT22;5101;49.038;8.710;2022-09-29T12:13:46;17.50;72.80
10123;DHT22;5101;49.038;8.710;2022-09-29T12:16:19;17.50;72.10
10123;DHT22;5101;49.038;8.710;2022-09-29T12:18:53;17.60;72.00
10123;DHT22;5101;49.038;8.710;2022-09-29T12:21:30;17.40;71.70
10123;DHT22;5101;49.038;8.710;2022-09-29T12:23:57;17.50;72.20
10123;DHT22;5101;49.038;8.710;2022-09-29T12:26:24;17.50;72.00
10123;DHT22;5101;49.038;8.710;2022-09-29T12:29:21;17.60;72.20
10123;DHT22;5101;49.038;8.710;2022-09-29T12:31:53;17.80;71.90
10123;DHT22;5101;49.038;8.710;2022-09-29T12:34:39;17.60;71.40
10123;DHT22;5101;49.038;8.710;2022-09-29T12:42:55;17.30;70.50
10123;DHT22;5101;49.038;8.710;2022-09-29T12:45:50;17.30;70.70
10123;DHT22;5101;49.038;8.710;2022-09-29T12:48:34;17.30;71.00
10123;DHT22;5101;49.038;8.710;2022-09-29T12:54:37;17.30;71.70
10123;DHT22;5101;49.038;8.710;2022-09-29T12:57:15;17.40;71.60
10123;DHT22;5101;49.038;8.710;2022-09-29T13:08:18;17.50;74.80
10123;DHT22;5101;49.038;8.710;2022-09-29T13:10:55;17.50;75.40
10123;DHT22;5101;49.038;8.710;2022-09-29T13:13:41;17.50;75.70
10123;DHT22;5101;49.038;8.710;2022-09-29T13:16:32;17.50;76.70
10123;DHT22;5101;49.038;8.710;2022-09-29T13:29:32;17.40;77.20
10123;DHT22;5101;49.038;8.710;2022-09-29T13:32:02;17.30;76.90
10123;DHT22;5101;49.038;8.710;2022-09-29T13:34:31;17.30;77.10
10123;DHT22;5101;49.038;8.710;2022-09-29T13:37:15;17.40;77.50
10123;DHT22;5101;49.038;8.710;2022-09-29T13:39:44;17.40;78.70
10123;DHT22;5101;49.038;8.710;2022-09-29T13:42:45;17.30;78.80
10123;DHT22;5101;49.038;8.710;2022-09-29T14:01:02;17.30;78.00
10123;DHT22;5101;49.038;8.710;2022-09-29T14:03:36;17.30;77.90
10123;DHT22;5101;49.038;8.710;2022-09-29T14:06:21;17.40;77.30
10123;DHT22;5101;49.038;8.710;2022-09-29T14:12:01;17.30;76.60
10123;DHT22;5101;49.038;8.710;2022-09-29T14:14:34;17.20;76.70
10123;DHT22;5101;49.038;8.710;2022-09-29T14:17:08;17.30;76.30
10123;DHT22;5101;49.038;8.710;2022-09-29T14:27:46;17.30;74.70
10123;DHT22;5101;49.038;8.710;2022-09-29T14:33:07;17.20;74.60
10123;DHT22;5101;49.038;8.710;2022-09-29T14:35:36;17.20;74.60
10123;DHT22;5101;49.038;8.710;2022-09-29T14:38:54;17.10;74.80
10123;DHT22;5101;49.038;8.710;2022-09-29T14:55:18;16.90;75.10
10123;DHT22;5101;49.038;8.710;2022-09-29T15:01:16;16.90;75.60
10123;DHT22;5101;49.038;8.710;2022-09-29T15:03:47;16.80;75.60
10123;DHT22;5101;49.038;8.710;2022-09-29T15:06:21;16.80;75.40
10123;DHT22;5101;49.038;8.710;2022-09-29T15:09:02;16.80;75.30
10123;DHT22;5101;49.038;8.710;2022-09-29T15:11:31;16.80;75.30
10123;DHT22;5101;49.038;8.710;2022-09-29T15:13:58;16.80;75.40
10123;DHT22;5101;49.038;8.710;2022-09-29T15:19:15;16.70;75.40
10123;DHT22;5101;49.038;8.710;2022-09-29T15:24:42;16.70;76.40
10123;DHT22;5101;49.038;8.710;2022-09-29T15:27:12;16.70;76.80
10123;DHT22;5101;49.038;8.710;2022-09-29T15:29:39;16.70;77.20
10123;DHT22;5101;49.038;8.710;2022-09-29T15:32:20;16.70;78.00
10123;DHT22;5101;49.038;8.710;2022-09-29T15:34:47;16.60;79.60
10123;DHT22;5101;49.038;8.710;2022-09-29T15:37:13;16.70;80.20
10123;DHT22;5101;49.038;8.710;2022-09-29T15:39:42;16.70;80.80
10123;DHT22;5101;49.038;8.710;2022-09-29T15:44:55;16.60;82.70
10123;DHT22;5101;49.038;8.710;2022-09-29T15:47:28;16.60;83.20
10123;DHT22;5101;49.038;8.710;2022-09-29T15:49:58;16.40;82.90
10123;DHT22;5101;49.038;8.710;2022-09-29T15:52:28;16.30;83.10
10123;DHT22;5101;49.038;8.710;2022-09-29T15:54:55;16.30;83.50
10123;DHT22;5101;49.038;8.710;2022-09-29T15:57:48;16.20;83.80
10123;DHT22;5101;49.038;8.710;2022-09-29T16:02:52;16.20;84.60
10123;DHT22;5101;49.038;8.710;2022-09-29T16:05:21;16.00;84.90
10123;DHT22;5101;49.038;8.710;2022-09-29T16:07:53;16.00;85.10
10123;DHT22;5101;49.038;8.710;2022-09-29T16:10:27;16.00;85.50
10123;DHT22;5101;49.038;8.710;2022-09-29T16:12:58;16.00;86.60
10123;DHT22;5101;49.038;8.710;2022-09-29T16:15:33;15.90;87.10
10123;DHT22;5101;49.038;8.710;2022-09-29T16:18:08;15.90;88.00
10123;DHT22;5101;49.038;8.710;2022-09-29T16:20:34;15.90;88.60
10123;DHT22;5101;49.038;8.710;2022-09-29T16:23:13;15.90;89.10
10123;DHT22;5101;49.038;8.710;2022-09-29T16:25:41;15.80;90.00
10123;DHT22;5101;49.038;8.710;2022-09-29T16:28:25;15.70;90.20
10123;DHT22;5101;49.038;8.710;2022-09-29T16:31:09;15.70;90.90
10123;DHT22;5101;49.038;8.710;2022-09-29T16:33:44;15.60;91.10
10123;DHT22;5101;49.038;8.710;2022-09-29T16:36:17;15.60;91.20
10123;DHT22;5101;49.038;8.710;2022-09-29T16:38:46;15.60;91.60
10123;DHT22;5101;49.038;8.710;2022-09-29T16:41:29;15.60;91.90
10123;DHT22;5101;49.038;8.710;2022-09-29T16:44:14;15.50;92.30
10123;DHT22;5101;49.038;8.710;2022-09-29T16:47:22;15.50;92.40
10123;DHT22;5101;49.038;8.710;2022-09-29T16:52:22;15.30;92.70
10123;DHT22;5101;49.038;8.710;2022-09-29T16:54:50;15.20;93.00
10123;DHT22;5101;49.038;8.710;2022-09-29T16:57:22;15.10;93.10
10123;DHT22;5101;49.038;8.710;2022-09-29T16:59:52;15.10;93.40
10123;DHT22;5101;49.038;8.710;2022-09-29T17:02:18;15.00;93.50
10123;DHT22;5101;49.038;8.710;2022-09-29T17:04:44;15.00;93.50
10123;DHT22;5101;49.038;8.710;2022-09-29T17:07:17;14.90;93.60
10123;DHT22;5101;49.038;8.710;2022-09-29T17:09:45;14.90;93.90
10123;DHT22;5101;49.038;8.710;2022-09-29T17:12:12;14.90;94.00
10123;DHT22;5101;49.038;8.710;2022-09-29T17:14:38;14.90;94.30
10123;DHT22;5101;49.038;8.710;2022-09-29T17:17:03;14.90;94.40
10123;DHT22;5101;49.038;8.710;2022-09-29T17:19:29;14.80;94.60
10123;DHT22;5101;49.038;8.710;2022-09-29T17:22:00;14.70;94.70
10123;DHT22;5101;49.038;8.710;2022-09-29T17:24:26;14.70;94.80
10123;DHT22;5101;49.038;8.710;2022-09-29T17:26:54;14.60;94.50
10123;DHT22;5101;49.038;8.710;2022-09-29T17:29:38;14.60;94.70
10123;DHT22;5101;49.038;8.710;2022-09-29T17:32:11;14.50;94.70
10123;DHT22;5101;49.038;8.710;2022-09-29T17:34:38;14.50;94.80
10123;DHT22;5101;49.038;8.710;2022-09-29T17:37:04;14.50;94.80
10123;DHT22;5101;49.038;8.710;2022-09-29T17:39:29;14.40;94.90
10123;DHT22;5101;49.038;8.710;2022-09-29T17:41:56;14.40;95.10
10123;DHT22;5101;49.038;8.710;2022-09-29T17:44:21;14.30;95.30
10123;DHT22;5101;49.038;8.710;2022-09-29T17:46:47;14.30;95.60
10123;DHT22;5101;49.038;8.710;2022-09-29T17:49:14;14.30;95.80
10123;DHT22;5101;49.038;8.710;2022-09-29T17:51:42;14.30;95.90
10123;DHT22;5101;49.038;8.710;2022-09-29T17:54:07;14.20;96.10
10123;DHT22;5101;49.038;8.710;2022-09-29T17:56:38;14.20;96.30
10123;DHT22;5101;49.038;8.710;2022-09-29T17:59:04;14.20;96.60
10123;DHT22;5101;49.038;8.710;2022-09-29T18:01:32;14.20;96.70
10123;DHT22;5101;49.038;8.710;2022-09-29T18:04:01;14.20;97.00
10123;DHT22;5101;49.038;8.710;2022-09-29T18:06:27;14.00;97.20
10123;DHT22;5101;49.038;8.710;2022-09-29T18:08:54;13.90;98.00
10123;DHT22;5101;49.038;8.710;2022-09-29T18:11:23;13.80;98.20
10123;DHT22;5101;49.038;8.710;2022-09-29T18:13:49;13.70;98.50
10123;DHT22;5101;49.038;8.710;2022-09-29T18:16:17;13.60;98.70
10123;DHT22;5101;49.038;8.710;2022-09-29T18:18:44;13.50;98.80
10123;DHT22;5101;49.038;8.710;2022-09-29T18:21:10;13.40;99.00
10123;DHT22;5101;49.038;8.710;2022-09-29T18:23:36;13.40;99.20
10123;DHT22;5101;49.038;8.710;2022-09-29T18:26:03;13.40;99.30
10123;DHT22;5101;49.038;8.710;2022-09-29T18:28:29;13.40;99.40
10123;DHT22;5101;49.038;8.710;2022-09-29T18:31:05;13.40;99.50
10123;DHT22;5101;49.038;8.710;2022-09-29T18:33:32;13.40;99.90
10123;DHT22;5101;49.038;8.710;2022-09-29T18:35:58;13.40;99.50
10123;DHT22;5101;49.038;8.710;2022-09-29T18:38:25;13.40;99.50
10123;DHT22;5101;49.038;8.710;2022-09-29T18:40:54;13.30;99.50
10123;DHT22;5101;49.038;8.710;2022-09-29T18:43:21;13.30;99.70
10123;DHT22;5101;49.038;8.710;2022-09-29T18:45:49;13.20;99.70
10123;DHT22;5101;49.038;8.710;2022-09-29T18:48:16;13.20;99.80
10123;DHT22;5101;49.038;8.710;2022-09-29T18:50:44;13.20;99.90
10123;DHT22;5101;49.038;8.710;2022-09-29T18:53:11;13.20;99.90
10123;DHT22;5101;49.038;8.710;2022-09-29T18:55:37;13.20;99.90
10123;DHT22;5101;49.038;8.710;2022-09-29T18:58:02;13.10;99.90
10123;DHT22;5101;49.038;8.710;2022-09-29T19:00:33;13.20;99.90
10123;DHT22;5101;49.038;8.710;2022-09-29T19:03:01;13.10;99.90
10123;DHT22;5101;49.038;8.710;2022-09-29T19:05:29;13.00;99.90
10123;DHT22;5101;49.038;8.710;2022-09-29T19:08:15;12.90;99.90
10123;DHT22;5101;49.038;8.710;2022-09-29T19:10:47;12.90;99.90
10123;DHT22;5101;49.038;8.710;2022-09-29T19:13:13;12.90;99.90
10123;DHT22;5101;49.038;8.710;2022-09-29T19:15:41;12.90;99.90
10123;DHT22;5101;49.038;8.710;2022-09-29T19:18:14;12.90;99.90